createdAt,value
2023-03-10T00:00:40.287Z,2.52
2023-03-10T00:03:21.854Z,2.45
2023-03-10T00:05:48.925Z,2.41
2023-03-10T00:08:16.143Z,2.39
2023-03-10T00:10:43.082Z,2.37
2023-03-10T00:13:10.252Z,2.40
2023-03-10T00:15:37.537Z,2.42
2023-03-10T00:18:04.782Z,2.43
2023-03-10T00:20:31.664Z,2.46
2023-03-10T00:22:58.856Z,2.46
2023-03-10T00:25:25.738Z,2.50
2023-03-10T00:27:52.886Z,2.53
2023-03-10T00:30:20.008Z,2.56
2023-03-10T00:32:47.457Z,2.61
2023-03-10T00:35:14.387Z,2.66
2023-03-10T00:37:41.543Z,2.72
2023-03-10T00:40:11.296Z,2.80
2023-03-10T00:42:38.507Z,2.92
2023-03-10T00:45:06.134Z,2.97
2023-03-10T00:47:33.787Z,2.92
2023-03-10T00:50:00.672Z,2.92
2023-03-10T00:52:32.234Z,2.85
2023-03-10T00:54:59.232Z,2.84
2023-03-10T00:57:26.849Z,2.78
2023-03-10T00:59:53.741Z,2.77
2023-03-10T01:02:21.725Z,2.79
2023-03-10T01:04:48.848Z,2.78
2023-03-10T01:07:16.160Z,2.76
2023-03-10T01:09:43.069Z,2.76
2023-03-10T01:12:10.297Z,2.76
2023-03-10T01:14:37.195Z,2.77
2023-03-10T01:17:05.643Z,2.78
2023-03-10T01:19:32.703Z,2.81
2023-03-10T01:21:59.895Z,2.84
2023-03-10T01:24:26.784Z,2.84
2023-03-10T01:26:53.977Z,2.83
2023-03-10T01:29:20.847Z,2.81
2023-03-10T01:31:48.040Z,2.81
2023-03-10T01:34:14.983Z,2.79
2023-03-10T01:36:42.536Z,2.75
2023-03-10T01:39:09.420Z,2.72
2023-03-10T01:41:40.623Z,2.67
2023-03-10T01:44:15.493Z,2.61
2023-03-10T01:46:49.455Z,2.60
2023-03-10T01:49:39.912Z,2.56
2023-03-10T01:52:22.004Z,2.46
2023-03-10T01:54:57.012Z,2.41
2023-03-10T01:57:29.903Z,2.35
2023-03-10T01:59:57.931Z,2.28
2023-03-10T02:02:26.083Z,2.21
2023-03-10T02:04:54.362Z,2.17
2023-03-10T02:07:26.941Z,2.10
2023-03-10T02:09:56.138Z,2.04
2023-03-10T02:12:23.543Z,1.99
2023-03-10T02:14:51.997Z,1.97
2023-03-10T02:17:23.180Z,2.00
2023-03-10T02:20:13.389Z,2.12
2023-03-10T02:22:41.307Z,2.31
2023-03-10T02:25:29.578Z,2.46
2023-03-10T02:27:57.233Z,2.58
2023-03-10T02:30:25.853Z,2.67
2023-03-10T02:33:00.475Z,2.77
2023-03-10T02:35:27.562Z,2.88
2023-03-10T02:37:54.859Z,2.97
2023-03-10T02:40:47.257Z,3.10
2023-03-10T02:43:31.927Z,3.22
2023-03-10T02:46:02.977Z,3.31
2023-03-10T02:48:34.667Z,3.36
2023-03-10T02:51:04.797Z,3.37
2023-03-10T02:53:32.059Z,3.38
2023-03-10T02:56:00.192Z,3.37
2023-03-10T02:58:29.798Z,3.37
2023-03-10T03:00:56.898Z,3.32
2023-03-10T03:03:24.822Z,3.36
2023-03-10T03:05:52.275Z,3.36
2023-03-10T03:08:20.054Z,3.38
2023-03-10T03:10:47.359Z,3.41
2023-03-10T03:13:14.659Z,3.44
2023-03-10T03:15:41.961Z,3.41
2023-03-10T03:18:10.156Z,3.38
2023-03-10T03:20:41.034Z,3.35
2023-03-10T03:23:08.977Z,3.33
2023-03-10T03:25:39.270Z,3.34
2023-03-10T03:28:08.726Z,3.40
2023-03-10T03:30:35.564Z,3.40
2023-03-10T03:33:04.516Z,3.42
2023-03-10T03:35:34.390Z,3.43
2023-03-10T03:38:01.953Z,3.50
2023-03-10T03:40:33.657Z,3.56
2023-03-10T03:43:01.366Z,3.65
2023-03-10T03:45:29.762Z,3.70
2023-03-10T03:47:57.167Z,3.72
2023-03-10T03:50:25.281Z,3.77
2023-03-10T03:52:52.697Z,3.82
2023-03-10T03:55:20.187Z,3.87
2023-03-10T03:57:48.136Z,3.93
2023-03-10T04:00:20.066Z,3.95
2023-03-10T04:02:47.514Z,3.96
2023-03-10T04:05:15.349Z,3.98
2023-03-10T04:07:43.175Z,4.00
2023-03-10T04:10:13.228Z,3.98
2023-03-10T04:12:40.381Z,3.93
2023-03-10T04:15:08.421Z,3.93
2023-03-10T04:17:36.217Z,3.97
2023-03-10T04:20:08.303Z,4.00
2023-03-10T04:22:36.782Z,4.02
2023-03-10T04:25:05.962Z,4.08
2023-03-10T04:27:34.054Z,4.11
2023-03-10T04:30:01.152Z,4.05
2023-03-10T04:32:28.430Z,4.05
2023-03-10T04:34:55.356Z,4.03
2023-03-10T04:37:23.062Z,4.03
2023-03-10T04:39:50.094Z,4.02
2023-03-10T04:42:17.330Z,4.00
2023-03-10T04:44:44.298Z,3.96
2023-03-10T04:47:11.452Z,3.94
2023-03-10T04:49:38.728Z,3.98
2023-03-10T04:52:06.156Z,4.03
2023-03-10T04:54:33.018Z,4.07
2023-03-10T04:57:00.387Z,4.12
2023-03-10T04:59:27.542Z,4.24
2023-03-10T05:01:54.789Z,4.31
2023-03-10T05:04:21.929Z,4.40
2023-03-10T05:06:52.992Z,4.47
2023-03-10T05:09:21.018Z,4.56
2023-03-10T05:11:48.468Z,4.62
2023-03-10T05:14:16.284Z,4.72
2023-03-10T05:16:43.753Z,4.79
2023-03-10T05:19:10.666Z,4.88
2023-03-10T05:21:37.847Z,4.92
2023-03-10T05:24:05.005Z,4.95
2023-03-10T05:26:34.722Z,4.97
2023-03-10T05:29:01.978Z,5.03
2023-03-10T05:31:29.298Z,5.06
2023-03-10T05:33:56.261Z,5.08
2023-03-10T05:36:23.549Z,5.13
2023-03-10T05:38:50.955Z,5.17
2023-03-10T05:41:18.633Z,5.26
2023-03-10T05:43:45.579Z,5.36
2023-03-10T05:46:13.080Z,5.51
2023-03-10T05:48:39.994Z,5.69
2023-03-10T05:51:10.330Z,5.94
2023-03-10T05:53:38.510Z,6.28
2023-03-10T05:56:12.215Z,6.65
2023-03-10T05:58:39.717Z,6.94
2023-03-10T06:01:07.498Z,7.28
2023-03-10T06:03:35.126Z,7.49
2023-03-10T06:06:02.971Z,7.91
2023-03-10T06:08:30.422Z,8.23
2023-03-10T06:10:57.996Z,8.65
2023-03-10T06:13:26.042Z,9.12
2023-03-10T06:15:58.515Z,9.29
2023-03-10T06:18:26.523Z,9.29
2023-03-10T06:20:53.818Z,9.59
2023-03-10T06:23:21.654Z,9.98
2023-03-10T06:25:58.660Z,10.38
2023-03-10T06:28:27.045Z,10.77
2023-03-10T06:30:56.424Z,10.92
2023-03-10T06:33:24.774Z,10.97
2023-03-10T06:35:52.141Z,11.31
2023-03-10T06:38:19.553Z,11.51
2023-03-10T06:40:46.874Z,11.55
2023-03-10T06:43:13.799Z,11.72
2023-03-10T06:45:42.644Z,11.80
2023-03-10T06:48:10.640Z,11.97
2023-03-10T06:50:42.126Z,12.30
2023-03-10T06:53:10.262Z,12.34
2023-03-10T06:55:38.271Z,12.63
2023-03-10T06:58:05.242Z,12.91
2023-03-10T07:00:32.484Z,13.15
2023-03-10T07:03:00.007Z,13.07
2023-03-10T07:05:27.958Z,12.90
2023-03-10T07:07:55.832Z,12.81
2023-03-10T07:10:23.367Z,12.77
2023-03-10T07:12:55.268Z,12.75
2023-03-10T07:15:23.044Z,12.92
2023-03-10T07:17:49.992Z,13.09
2023-03-10T07:20:18.524Z,13.14
2023-03-10T07:22:45.385Z,13.26
2023-03-10T07:25:12.519Z,13.34
2023-03-10T07:27:39.388Z,13.35
2023-03-10T07:30:07.799Z,13.49
2023-03-10T07:32:34.763Z,13.58
2023-03-10T07:35:02.321Z,13.65
2023-03-10T07:37:29.205Z,13.73
2023-03-10T07:39:56.439Z,13.87
2023-03-10T07:42:23.434Z,13.96
2023-03-10T07:44:50.843Z,13.90
2023-03-10T07:47:17.876Z,14.01
2023-03-10T07:49:47.043Z,14.23
2023-03-10T07:52:15.459Z,14.40
2023-03-10T07:54:44.416Z,14.41
2023-03-10T07:57:13.096Z,14.50
2023-03-10T07:59:40.602Z,14.45
2023-03-10T08:02:07.849Z,14.54
2023-03-10T08:04:36.033Z,14.59
2023-03-10T08:07:03.047Z,14.62
2023-03-10T08:09:30.927Z,14.85
2023-03-10T08:12:01.319Z,15.24
2023-03-10T08:14:30.026Z,15.30
2023-03-10T08:16:57.337Z,15.20
2023-03-10T08:19:26.299Z,15.23
2023-03-10T08:21:57.790Z,15.13
2023-03-10T08:24:26.208Z,15.32
2023-03-10T08:26:53.078Z,15.12
2023-03-10T08:29:20.385Z,15.22
2023-03-10T08:31:48.192Z,15.11
2023-03-10T08:34:16.807Z,15.23
2023-03-10T08:36:44.615Z,15.43
2023-03-10T08:39:12.805Z,15.83
2023-03-10T08:41:45.670Z,15.94
2023-03-10T08:44:15.713Z,15.89
2023-03-10T08:46:47.168Z,16.12
2023-03-10T08:49:17.127Z,15.97
2023-03-10T08:51:44.607Z,15.90
2023-03-10T08:54:13.788Z,16.07
2023-03-10T08:56:40.707Z,16.19
2023-03-10T08:59:07.956Z,16.45
2023-03-10T09:01:37.708Z,16.44
2023-03-10T09:04:06.983Z,16.61
2023-03-10T09:06:34.687Z,16.74
2023-03-10T09:09:02.781Z,17.05
2023-03-10T09:11:32.819Z,17.11
2023-03-10T09:14:01.903Z,17.12
2023-03-10T09:16:30.267Z,17.34
2023-03-10T09:18:58.874Z,17.50
2023-03-10T09:21:26.920Z,17.73
2023-03-10T09:23:54.269Z,17.79
2023-03-10T09:26:22.341Z,17.66
2023-03-10T09:28:51.065Z,17.47
2023-03-10T09:31:21.648Z,17.61
2023-03-10T09:33:49.500Z,17.76
2023-03-10T09:36:20.118Z,17.84
2023-03-10T09:38:47.437Z,17.53
2023-03-10T09:41:47.776Z,17.49
2023-03-10T09:44:34.396Z,17.64
2023-03-10T09:47:10.930Z,17.76
2023-03-10T09:49:43.799Z,17.92
2023-03-10T09:52:46.003Z,17.60
2023-03-10T09:55:23.476Z,17.66
2023-03-10T09:57:53.463Z,18.03
2023-03-10T10:00:42.680Z,17.96
2023-03-10T10:03:23.032Z,18.06
2023-03-10T10:05:53.445Z,18.06
2023-03-10T10:08:22.975Z,18.07
2023-03-10T10:10:54.391Z,17.97
2023-03-10T10:13:25.168Z,18.26
2023-03-10T10:16:34.550Z,18.10
2023-03-10T10:19:04.979Z,18.09
2023-03-10T10:22:00.723Z,17.88
2023-03-10T10:24:27.744Z,18.11
2023-03-10T10:26:56.027Z,18.32
2023-03-10T10:29:29.000Z,18.50
2023-03-10T10:32:10.175Z,18.02
2023-03-10T10:34:40.145Z,18.14
2023-03-10T10:37:41.438Z,17.85
2023-03-10T10:40:26.671Z,18.04
2023-03-10T10:43:00.916Z,18.36
2023-03-10T10:45:33.517Z,18.58
2023-03-10T10:48:00.894Z,18.75
2023-03-10T10:50:27.687Z,18.92
2023-03-10T10:53:16.605Z,19.00
2023-03-10T10:55:45.919Z,18.98
2023-03-10T10:58:37.293Z,18.49
2023-03-10T11:01:12.981Z,17.96
2023-03-10T11:03:46.295Z,18.02
2023-03-10T11:06:23.736Z,18.14
2023-03-10T11:08:51.553Z,18.39
2023-03-10T11:11:18.786Z,18.50
2023-03-10T11:14:05.284Z,18.54
2023-03-10T11:16:42.670Z,18.45
2023-03-10T11:19:43.952Z,18.38
2023-03-10T11:22:17.345Z,18.37
2023-03-10T11:25:07.701Z,18.43
2023-03-10T11:27:48.741Z,18.14
2023-03-10T11:30:31.138Z,18.18
2023-03-10T11:33:27.405Z,18.04
2023-03-10T11:36:01.152Z,17.88
2023-03-10T11:38:44.308Z,17.67
2023-03-10T11:41:25.575Z,17.63
2023-03-10T11:44:24.518Z,17.74
2023-03-10T11:47:26.206Z,18.02
2023-03-10T11:50:13.364Z,18.13
2023-03-10T11:52:42.055Z,18.15
2023-03-10T11:55:20.209Z,18.14
2023-03-10T11:57:50.661Z,18.16
2023-03-10T12:00:39.656Z,18.07
2023-03-10T12:03:12.516Z,18.10
2023-03-10T12:05:52.478Z,17.99
2023-03-10T12:08:22.894Z,17.77
2023-03-10T12:10:51.149Z,17.62
2023-03-10T12:13:23.641Z,17.64
2023-03-10T12:15:54.445Z,17.69
2023-03-10T12:18:21.771Z,17.66
2023-03-10T12:21:19.117Z,18.05
2023-03-10T12:23:49.438Z,18.04
2023-03-10T12:26:39.133Z,18.00
2023-03-10T12:29:21.469Z,17.85
2023-03-10T12:31:51.648Z,18.00
2023-03-10T12:34:29.206Z,17.84
2023-03-10T12:37:11.508Z,17.81
2023-03-10T12:39:42.530Z,18.04
2023-03-10T12:42:27.777Z,18.01
2023-03-10T12:44:58.065Z,17.62
2023-03-10T12:47:24.995Z,17.42
2023-03-10T12:50:19.646Z,17.58
2023-03-10T12:52:53.597Z,17.64
2023-03-10T12:55:22.179Z,17.42
2023-03-10T12:58:08.068Z,17.19
2023-03-10T13:00:49.049Z,17.13
2023-03-10T13:03:25.042Z,17.17
2023-03-10T13:06:00.855Z,17.22
2023-03-10T13:08:43.229Z,17.24
2023-03-10T13:11:24.176Z,17.28
2023-03-10T13:13:56.532Z,17.11
2023-03-10T13:16:23.778Z,17.00
2023-03-10T13:18:53.369Z,16.92
2023-03-10T13:21:36.276Z,16.67
2023-03-10T13:24:19.199Z,16.58
2023-03-10T13:26:46.515Z,16.54
2023-03-10T13:29:22.196Z,16.47
2023-03-10T13:31:54.127Z,16.46
2023-03-10T13:34:22.978Z,16.53
2023-03-10T13:36:50.175Z,16.53
2023-03-10T13:39:22.437Z,16.32
2023-03-10T13:41:55.242Z,16.25
2023-03-10T13:58:26.699Z,16.17
2023-03-10T14:00:56.420Z,15.98
2023-03-10T14:03:23.506Z,15.74
2023-03-10T14:05:50.758Z,15.46
2023-03-10T14:08:28.351Z,15.31
2023-03-10T14:11:35.746Z,15.18
2023-03-10T14:14:08.045Z,15.17
2023-03-10T14:16:45.735Z,15.11
2023-03-10T14:19:12.946Z,15.04
2023-03-10T14:21:52.289Z,15.00
2023-03-10T14:24:27.228Z,15.03
2023-03-10T14:26:59.548Z,14.98
2023-03-10T14:29:27.322Z,15.04
2023-03-10T14:31:54.529Z,14.89
2023-03-10T14:34:21.442Z,14.85
2023-03-10T14:36:48.608Z,14.75
2023-03-10T14:39:15.528Z,14.73
2023-03-10T14:41:42.758Z,14.73
2023-03-10T14:44:10.784Z,14.65
2023-03-10T14:46:38.276Z,14.61
2023-03-10T14:49:11.138Z,14.57
2023-03-10T14:51:38.343Z,14.50
2023-03-10T14:54:16.691Z,14.52
2023-03-10T14:56:44.068Z,14.45
2023-03-10T14:59:15.169Z,14.36
2023-03-10T15:01:43.114Z,14.34
2023-03-10T15:04:16.905Z,14.25
2023-03-10T15:06:44.805Z,14.19
2023-03-10T15:09:11.860Z,14.11
2023-03-10T15:11:39.590Z,14.08
2023-03-10T15:14:26.888Z,13.97
2023-03-10T15:16:55.576Z,13.90
2023-03-10T15:19:26.175Z,13.84
2023-03-10T15:21:54.081Z,13.80
2023-03-10T15:24:21.278Z,13.76
2023-03-10T15:26:48.490Z,13.73
2023-03-10T15:29:18.095Z,13.69
2023-03-10T15:31:45.497Z,13.68
2023-03-10T15:34:12.445Z,13.69
2023-03-10T15:36:39.626Z,13.66
2023-03-10T15:39:06.706Z,13.61
2023-03-10T15:41:38.313Z,13.58
2023-03-10T15:44:06.377Z,13.50
2023-03-10T15:46:33.923Z,13.48
2023-03-10T15:49:03.448Z,13.46
2023-03-10T15:51:30.683Z,13.39
2023-03-10T15:53:57.671Z,13.39
2023-03-10T15:56:26.042Z,13.35
2023-03-10T15:58:53.127Z,13.27
2023-03-10T16:01:20.941Z,13.26
2023-03-10T16:03:50.669Z,13.21
2023-03-10T16:06:17.917Z,13.16
2023-03-10T16:08:44.781Z,13.13
2023-03-10T16:11:19.452Z,13.07
2023-03-10T16:13:49.610Z,13.01
2023-03-10T16:16:18.842Z,12.99
2023-03-10T16:18:47.225Z,12.97
2023-03-10T16:21:16.811Z,12.92
2023-03-10T16:23:45.669Z,12.91
2023-03-10T16:26:21.041Z,12.91
2023-03-10T16:28:53.484Z,12.86
2023-03-10T16:31:23.165Z,12.88
2023-03-10T16:33:51.520Z,12.85
2023-03-10T16:36:21.841Z,12.81
2023-03-10T16:38:49.848Z,12.77
2023-03-10T16:41:17.568Z,12.68
2023-03-10T16:43:44.471Z,12.61
2023-03-10T16:46:25.627Z,12.56
2023-03-10T16:48:54.539Z,12.48
2023-03-10T16:51:33.406Z,12.52
2023-03-10T16:54:11.485Z,12.54
2023-03-10T16:56:50.555Z,12.53
2023-03-10T16:59:20.841Z,12.52
2023-03-10T17:01:49.065Z,12.45
2023-03-10T17:04:16.285Z,12.41
2023-03-10T17:06:44.200Z,12.33
2023-03-10T17:09:12.018Z,12.33
2023-03-10T17:11:55.352Z,12.28
2023-03-10T17:14:23.092Z,12.30
2023-03-10T17:16:51.122Z,12.28
2023-03-10T17:19:20.754Z,12.28
2023-03-10T17:21:50.659Z,12.23
2023-03-10T17:24:19.494Z,12.20
2023-03-10T17:26:47.502Z,12.17
2023-03-10T17:29:15.205Z,12.13
2023-03-10T17:31:44.057Z,12.09
2023-03-10T17:34:13.528Z,12.04
2023-03-10T17:36:40.800Z,12.03
2023-03-10T17:39:07.771Z,11.95
2023-03-10T17:41:36.200Z,11.89
2023-03-10T17:44:06.486Z,11.86
2023-03-10T17:46:33.858Z,11.83
2023-03-10T17:49:00.786Z,11.81
2023-03-10T17:51:30.712Z,11.75
2023-03-10T17:54:00.892Z,11.69
2023-03-10T17:56:29.151Z,11.64
2023-03-10T17:58:57.284Z,11.63
2023-03-10T18:01:27.437Z,11.57
2023-03-10T18:03:56.210Z,11.52
2023-03-10T18:06:30.440Z,11.50
2023-03-10T18:08:59.260Z,11.40
2023-03-10T18:11:27.439Z,11.36
2023-03-10T18:13:54.596Z,11.34
2023-03-10T18:16:26.518Z,11.28
2023-03-10T18:18:54.794Z,11.24
2023-03-10T18:21:23.154Z,11.21
2023-03-10T18:23:51.483Z,11.19
2023-03-10T18:26:22.350Z,11.14
2023-03-10T18:28:49.383Z,11.09
2023-03-10T18:31:25.851Z,11.03
2023-03-10T18:33:52.908Z,10.96
2023-03-10T18:36:20.990Z,10.94
2023-03-10T18:38:48.891Z,10.90
2023-03-10T18:41:19.779Z,10.87
2023-03-10T18:43:46.897Z,10.85
2023-03-10T18:46:14.115Z,10.78
2023-03-10T18:48:41.382Z,10.76
2023-03-10T18:51:08.665Z,10.74
2023-03-10T18:53:36.920Z,10.71
2023-03-10T18:56:04.251Z,10.69
2023-03-10T18:58:33.115Z,10.72
2023-03-10T19:01:00.405Z,10.71
2023-03-10T19:03:31.000Z,10.72
2023-03-10T19:05:58.483Z,10.70
2023-03-10T19:08:27.286Z,10.68
2023-03-10T19:10:59.192Z,10.63
2023-03-10T19:13:28.159Z,10.61
2023-03-10T19:15:55.668Z,10.58
2023-03-10T19:18:23.277Z,10.55
2023-03-10T19:20:51.074Z,10.55
2023-03-10T19:23:18.508Z,10.54
2023-03-10T19:25:45.802Z,10.51
2023-03-10T19:28:12.786Z,10.48
2023-03-10T19:30:42.920Z,10.49
2023-03-10T19:33:11.059Z,10.46
2023-03-10T19:35:38.869Z,10.41
2023-03-10T19:38:05.893Z,10.31
2023-03-10T19:40:33.679Z,10.26
2023-03-10T19:43:01.323Z,10.19
2023-03-10T19:45:29.401Z,10.13
2023-03-10T19:47:58.124Z,10.08
2023-03-10T19:50:26.447Z,10.02
2023-03-10T19:52:53.442Z,9.93
2023-03-10T19:55:23.870Z,9.87
2023-03-10T19:57:53.659Z,9.83
2023-03-10T20:00:25.579Z,9.82
2023-03-10T20:02:54.279Z,9.80
2023-03-10T20:05:22.249Z,9.82
2023-03-10T20:07:49.239Z,9.80
2023-03-10T20:10:18.282Z,9.83
2023-03-10T20:12:47.321Z,9.84
2023-03-10T20:15:15.109Z,9.84
2023-03-10T20:17:42.171Z,9.85
2023-03-10T20:20:11.131Z,9.86
2023-03-10T20:22:45.512Z,9.82
2023-03-10T20:25:16.825Z,9.77
2023-03-10T20:27:44.656Z,9.73
2023-03-10T20:30:18.041Z,9.69
2023-03-10T20:32:45.943Z,9.66
2023-03-10T20:35:14.119Z,9.65
2023-03-10T20:37:45.022Z,9.66
2023-03-10T20:40:16.550Z,9.63
2023-03-10T20:42:43.681Z,9.56
2023-03-10T20:45:14.161Z,9.51
2023-03-10T20:47:41.580Z,9.45
2023-03-10T20:50:10.392Z,9.40
2023-03-10T20:52:39.539Z,9.35
2023-03-10T20:55:08.224Z,9.31
2023-03-10T20:57:35.166Z,9.29
2023-03-10T21:00:04.298Z,9.28
2023-03-10T21:02:31.314Z,9.29
2023-03-10T21:04:58.675Z,9.30
2023-03-10T21:07:25.768Z,9.34
2023-03-10T21:09:53.050Z,9.39
2023-03-10T21:12:21.217Z,9.47
2023-03-10T21:14:48.482Z,9.48
2023-03-10T21:17:15.531Z,9.52
2023-03-10T21:19:42.821Z,9.60
2023-03-10T21:22:09.828Z,9.62
2023-03-10T21:24:38.104Z,9.59
2023-03-10T21:27:05.512Z,9.57
2023-03-10T21:29:34.554Z,9.53
2023-03-10T21:32:01.458Z,9.47
2023-03-10T21:34:28.977Z,9.41
2023-03-10T21:36:55.822Z,9.33
2023-03-10T21:39:23.276Z,9.26
2023-03-10T21:41:50.186Z,9.18
2023-03-10T21:44:17.411Z,9.13
2023-03-10T21:46:44.627Z,9.10
2023-03-10T21:49:11.934Z,9.10
2023-03-10T21:51:38.794Z,9.13
2023-03-10T21:54:06.101Z,9.14
2023-03-10T21:56:33.031Z,9.15
2023-03-10T21:59:00.220Z,9.13
2023-03-10T22:01:27.618Z,9.12
2023-03-10T22:03:54.858Z,9.12
2023-03-10T22:06:22.071Z,9.11
2023-03-10T22:08:49.558Z,9.09
2023-03-10T22:11:17.122Z,9.07
2023-03-10T22:13:44.714Z,9.05
2023-03-10T22:16:16.988Z,8.98
2023-03-10T22:18:44.964Z,8.98
2023-03-10T22:21:12.432Z,8.91
2023-03-10T22:23:39.980Z,8.89
2023-03-10T22:26:07.864Z,8.90
2023-03-10T22:28:35.096Z,8.89
2023-03-10T22:31:05.942Z,8.89
2023-03-10T22:33:34.242Z,8.89
2023-03-10T22:36:09.036Z,8.89
2023-03-10T22:38:36.370Z,8.92
2023-03-10T22:41:03.584Z,8.94
2023-03-10T22:43:30.763Z,8.97
2023-03-10T22:45:59.910Z,8.99
2023-03-10T22:48:27.116Z,8.99
2023-03-10T22:50:54.046Z,9.01
2023-03-10T22:53:21.272Z,9.02
2023-03-10T22:55:50.010Z,9.03
2023-03-10T22:58:17.536Z,9.01
2023-03-10T23:00:44.737Z,8.99
2023-03-10T23:03:13.901Z,8.93
2023-03-10T23:05:41.735Z,8.90
2023-03-10T23:08:09.057Z,8.81
2023-03-10T23:10:36.978Z,8.70
2023-03-10T23:13:12.527Z,8.55
2023-03-10T23:15:39.989Z,8.49
2023-03-10T23:18:07.964Z,8.43
2023-03-10T23:20:38.859Z,8.38
2023-03-10T23:23:08.390Z,8.32
2023-03-10T23:25:37.648Z,8.31
2023-03-10T23:28:06.688Z,8.38
2023-03-10T23:30:34.988Z,8.41
2023-03-10T23:33:02.387Z,8.37
2023-03-10T23:35:32.211Z,8.30
2023-03-10T23:38:00.564Z,8.31
2023-03-10T23:40:29.728Z,8.30
2023-03-10T23:42:58.611Z,8.28
2023-03-10T23:45:28.766Z,8.27
2023-03-10T23:47:57.461Z,8.25
2023-03-10T23:50:28.720Z,8.23
2023-03-10T23:52:56.811Z,8.21
2023-03-10T23:55:37.371Z,8.22
2023-03-10T23:58:06.020Z,8.21
